sensor_id;sensor_type;location;lat;lon;timestamp;temperature;humidity
76345;DHT22;65160;50.504;3.666;2022-11-13T00:01:13;6.37;89.14
76345;DHT22;65160;50.504;3.666;2022-11-13T00:03:38;6.38;89.82
76345;DHT22;65160;50.504;3.666;2022-11-13T00:06:04;6.49;89.46
76345;DHT22;65160;50.504;3.666;2022-11-13T00:08:30;6.48;89.34
76345;DHT22;65160;50.504;3.666;2022-11-13T00:11:06;6.52;89.73
76345;DHT22;65160;50.504;3.666;2022-11-13T00:13:33;6.68;89.50
76345;DHT22;65160;50.504;3.666;2022-11-13T00:16:00;6.61;89.52
76345;DHT22;65160;50.504;3.666;2022-11-13T00:18:27;6.64;89.73
76345;DHT22;65160;50.504;3.666;2022-11-13T00:20:55;6.59;89.83
76345;DHT22;65160;50.504;3.666;2022-11-13T00:23:20;6.49;90.19
76345;DHT22;65160;50.504;3.666;2022-11-13T00:25:46;6.53;90.54
76345;DHT22;65160;50.504;3.666;2022-11-13T00:28:11;6.51;91.04
76345;DHT22;65160;50.504;3.666;2022-11-13T00:30:37;6.53;90.98
76345;DHT22;65160;50.504;3.666;2022-11-13T00:33:02;6.58;90.98
76345;DHT22;65160;50.504;3.666;2022-11-13T00:35:28;6.58;91.23
76345;DHT22;65160;50.504;3.666;2022-11-13T00:37:53;6.58;91.39
76345;DHT22;65160;50.504;3.666;2022-11-13T00:40:19;6.61;91.50
76345;DHT22;65160;50.504;3.666;2022-11-13T00:42:44;6.61;91.82
76345;DHT22;65160;50.504;3.666;2022-11-13T00:45:10;6.52;91.54
76345;DHT22;65160;50.504;3.666;2022-11-13T00:47:35;6.45;91.76
76345;DHT22;65160;50.504;3.666;2022-11-13T00:50:01;6.40;91.84
76345;DHT22;65160;50.504;3.666;2022-11-13T00:52:26;6.32;91.81
76345;DHT22;65160;50.504;3.666;2022-11-13T00:54:52;6.27;91.41
76345;DHT22;65160;50.504;3.666;2022-11-13T00:57:17;6.25;91.54
76345;DHT22;65160;50.504;3.666;2022-11-13T00:59:43;6.18;91.52
76345;DHT22;65160;50.504;3.666;2022-11-13T01:02:08;6.20;91.15
76345;DHT22;65160;50.504;3.666;2022-11-13T01:04:34;6.17;90.89
76345;DHT22;65160;50.504;3.666;2022-11-13T01:06:59;6.13;90.66
76345;DHT22;65160;50.504;3.666;2022-11-13T01:09:25;6.11;90.59
76345;DHT22;65160;50.504;3.666;2022-11-13T01:11:50;5.99;90.36
76345;DHT22;65160;50.504;3.666;2022-11-13T01:14:16;6.06;90.65
76345;DHT22;65160;50.504;3.666;2022-11-13T01:16:41;6.07;90.67
76345;DHT22;65160;50.504;3.666;2022-11-13T01:19:07;6.09;90.90
76345;DHT22;65160;50.504;3.666;2022-11-13T01:21:32;6.30;90.26
76345;DHT22;65160;50.504;3.666;2022-11-13T01:23:57;6.24;90.41
76345;DHT22;65160;50.504;3.666;2022-11-13T01:26:26;6.11;90.45
76345;DHT22;65160;50.504;3.666;2022-11-13T01:28:53;6.06;90.70
76345;DHT22;65160;50.504;3.666;2022-11-13T01:31:21;6.00;91.41
76345;DHT22;65160;50.504;3.666;2022-11-13T01:33:47;6.03;92.36
76345;DHT22;65160;50.504;3.666;2022-11-13T01:36:16;6.00;92.70
76345;DHT22;65160;50.504;3.666;2022-11-13T01:38:43;6.06;93.01
76345;DHT22;65160;50.504;3.666;2022-11-13T01:41:18;6.02;93.05
76345;DHT22;65160;50.504;3.666;2022-11-13T01:43:44;5.94;92.84
76345;DHT22;65160;50.504;3.666;2022-11-13T01:46:18;5.85;92.49
76345;DHT22;65160;50.504;3.666;2022-11-13T01:48:50;5.80;92.44
76345;DHT22;65160;50.504;3.666;2022-11-13T01:51:39;5.85;92.46
76345;DHT22;65160;50.504;3.666;2022-11-13T01:54:40;5.85;92.29
76345;DHT22;65160;50.504;3.666;2022-11-13T01:57:07;5.77;92.33
76345;DHT22;65160;50.504;3.666;2022-11-13T01:59:39;5.76;92.16
76345;DHT22;65160;50.504;3.666;2022-11-13T02:02:06;5.75;92.30
76345;DHT22;65160;50.504;3.666;2022-11-13T02:04:32;5.82;92.87
76345;DHT22;65160;50.504;3.666;2022-11-13T02:07:05;5.76;92.78
76345;DHT22;65160;50.504;3.666;2022-11-13T02:09:36;5.69;92.66
76345;DHT22;65160;50.504;3.666;2022-11-13T02:12:02;5.58;92.14
76345;DHT22;65160;50.504;3.666;2022-11-13T02:14:29;5.60;92.30
76345;DHT22;65160;50.504;3.666;2022-11-13T02:16:58;5.67;92.75
76345;DHT22;65160;50.504;3.666;2022-11-13T02:19:29;5.65;92.38
76345;DHT22;65160;50.504;3.666;2022-11-13T02:24:50;5.56;92.02
76345;DHT22;65160;50.504;3.666;2022-11-13T02:29:46;5.54;92.85
76345;DHT22;65160;50.504;3.666;2022-11-13T02:32:12;5.51;92.70
76345;DHT22;65160;50.504;3.666;2022-11-13T02:34:37;5.54;92.58
76345;DHT22;65160;50.504;3.666;2022-11-13T02:37:03;5.49;92.09
76345;DHT22;65160;50.504;3.666;2022-11-13T02:39:28;5.48;91.64
76345;DHT22;65160;50.504;3.666;2022-11-13T02:41:53;5.42;91.44
76345;DHT22;65160;50.504;3.666;2022-11-13T02:44:19;5.38;91.13
76345;DHT22;65160;50.504;3.666;2022-11-13T02:46:44;5.39;90.93
76345;DHT22;65160;50.504;3.666;2022-11-13T02:49:10;5.37;91.69
76345;DHT22;65160;50.504;3.666;2022-11-13T02:51:35;5.31;91.69
76345;DHT22;65160;50.504;3.666;2022-11-13T02:54:01;5.14;91.54
76345;DHT22;65160;50.504;3.666;2022-11-13T02:56:26;5.01;91.72
76345;DHT22;65160;50.504;3.666;2022-11-13T02:58:51;5.04;91.74
76345;DHT22;65160;50.504;3.666;2022-11-13T03:01:17;5.09;91.53
76345;DHT22;65160;50.504;3.666;2022-11-13T03:03:42;5.14;91.27
76345;DHT22;65160;50.504;3.666;2022-11-13T03:06:07;5.21;90.96
76345;DHT22;65160;50.504;3.666;2022-11-13T03:08:33;5.24;90.57
76345;DHT22;65160;50.504;3.666;2022-11-13T03:10:58;5.21;90.53
76345;DHT22;65160;50.504;3.666;2022-11-13T03:13:24;5.11;90.60
76345;DHT22;65160;50.504;3.666;2022-11-13T03:15:49;5.16;90.77
76345;DHT22;65160;50.504;3.666;2022-11-13T03:18:14;5.20;90.55
76345;DHT22;65160;50.504;3.666;2022-11-13T03:20:42;5.13;90.69
76345;DHT22;65160;50.504;3.666;2022-11-13T03:23:08;5.20;90.53
76345;DHT22;65160;50.504;3.666;2022-11-13T03:25:34;5.21;90.48
76345;DHT22;65160;50.504;3.666;2022-11-13T03:27:59;5.17;90.48
76345;DHT22;65160;50.504;3.666;2022-11-13T03:30:26;5.21;90.42
76345;DHT22;65160;50.504;3.666;2022-11-13T03:32:55;5.13;90.44
76345;DHT22;65160;50.504;3.666;2022-11-13T03:35:24;5.11;90.64
76345;DHT22;65160;50.504;3.666;2022-11-13T03:37:50;5.23;90.70
76345;DHT22;65160;50.504;3.666;2022-11-13T03:40:16;5.20;90.60
76345;DHT22;65160;50.504;3.666;2022-11-13T03:42:41;5.20;90.60
76345;DHT22;65160;50.504;3.666;2022-11-13T03:45:07;5.16;90.71
76345;DHT22;65160;50.504;3.666;2022-11-13T03:47:32;5.21;90.66
76345;DHT22;65160;50.504;3.666;2022-11-13T03:49:58;5.20;90.67
76345;DHT22;65160;50.504;3.666;2022-11-13T03:52:23;5.20;90.77
76345;DHT22;65160;50.504;3.666;2022-11-13T03:54:48;5.18;90.85
76345;DHT22;65160;50.504;3.666;2022-11-13T03:57:14;5.21;90.82
76345;DHT22;65160;50.504;3.666;2022-11-13T03:59:39;5.24;90.69
76345;DHT22;65160;50.504;3.666;2022-11-13T04:02:05;5.28;90.53
76345;DHT22;65160;50.504;3.666;2022-11-13T04:04:30;5.20;90.65
76345;DHT22;65160;50.504;3.666;2022-11-13T04:06:55;5.20;90.89
76345;DHT22;65160;50.504;3.666;2022-11-13T04:09:21;5.32;90.66
76345;DHT22;65160;50.504;3.666;2022-11-13T04:11:46;5.31;90.52
76345;DHT22;65160;50.504;3.666;2022-11-13T04:14:12;5.31;90.56
76345;DHT22;65160;50.504;3.666;2022-11-13T04:16:37;5.31;90.77
76345;DHT22;65160;50.504;3.666;2022-11-13T04:19:03;5.27;91.05
76345;DHT22;65160;50.504;3.666;2022-11-13T04:21:28;5.26;91.15
76345;DHT22;65160;50.504;3.666;2022-11-13T04:23:53;5.28;90.81
76345;DHT22;65160;50.504;3.666;2022-11-13T04:26:19;5.27;90.74
76345;DHT22;65160;50.504;3.666;2022-11-13T04:28:44;5.14;90.75
76345;DHT22;65160;50.504;3.666;2022-11-13T04:31:10;5.07;90.99
76345;DHT22;65160;50.504;3.666;2022-11-13T04:33:35;5.10;91.04
76345;DHT22;65160;50.504;3.666;2022-11-13T04:36:01;5.04;91.48
76345;DHT22;65160;50.504;3.666;2022-11-13T04:38:26;4.99;91.76
76345;DHT22;65160;50.504;3.666;2022-11-13T04:40:52;4.93;91.82
76345;DHT22;65160;50.504;3.666;2022-11-13T04:43:40;4.91;91.72
76345;DHT22;65160;50.504;3.666;2022-11-13T04:46:05;4.99;91.53
76345;DHT22;65160;50.504;3.666;2022-11-13T04:48:31;4.96;91.38
76345;DHT22;65160;50.504;3.666;2022-11-13T04:50:56;5.09;91.34
76345;DHT22;65160;50.504;3.666;2022-11-13T04:53:22;5.03;91.57
76345;DHT22;65160;50.504;3.666;2022-11-13T04:55:47;5.07;91.63
76345;DHT22;65160;50.504;3.666;2022-11-13T04:58:12;4.99;91.63
76345;DHT22;65160;50.504;3.666;2022-11-13T05:00:38;4.90;91.85
76345;DHT22;65160;50.504;3.666;2022-11-13T05:03:03;4.91;91.96
76345;DHT22;65160;50.504;3.666;2022-11-13T05:05:29;4.86;92.13
76345;DHT22;65160;50.504;3.666;2022-11-13T05:07:54;4.97;92.22
76345;DHT22;65160;50.504;3.666;2022-11-13T05:10:20;5.00;92.30
76345;DHT22;65160;50.504;3.666;2022-11-13T05:12:46;5.21;92.23
76345;DHT22;65160;50.504;3.666;2022-11-13T05:15:11;5.01;91.43
76345;DHT22;65160;50.504;3.666;2022-11-13T05:17:36;4.97;90.88
76345;DHT22;65160;50.504;3.666;2022-11-13T05:20:03;4.79;91.33
76345;DHT22;65160;50.504;3.666;2022-11-13T05:22:28;4.56;91.58
76345;DHT22;65160;50.504;3.666;2022-11-13T05:24:53;4.51;91.69
76345;DHT22;65160;50.504;3.666;2022-11-13T05:27:19;4.46;91.69
76345;DHT22;65160;50.504;3.666;2022-11-13T05:29:44;4.41;91.67
76345;DHT22;65160;50.504;3.666;2022-11-13T05:32:10;4.44;91.67
76345;DHT22;65160;50.504;3.666;2022-11-13T05:34:35;4.45;91.55
76345;DHT22;65160;50.504;3.666;2022-11-13T05:37:00;4.42;92.15
76345;DHT22;65160;50.504;3.666;2022-11-13T05:39:26;4.55;91.60
76345;DHT22;65160;50.504;3.666;2022-11-13T05:41:51;4.51;91.66
76345;DHT22;65160;50.504;3.666;2022-11-13T05:44:17;4.52;91.34
76345;DHT22;65160;50.504;3.666;2022-11-13T05:46:42;4.42;91.60
76345;DHT22;65160;50.504;3.666;2022-11-13T05:49:08;4.40;91.84
76345;DHT22;65160;50.504;3.666;2022-11-13T05:51:33;4.44;91.79
76345;DHT22;65160;50.504;3.666;2022-11-13T05:53:59;4.45;91.84
76345;DHT22;65160;50.504;3.666;2022-11-13T05:56:27;4.40;92.05
76345;DHT22;65160;50.504;3.666;2022-11-13T05:58:54;4.46;92.01
76345;DHT22;65160;50.504;3.666;2022-11-13T06:03:48;4.68;91.25
76345;DHT22;65160;50.504;3.666;2022-11-13T06:06:16;4.71;91.10
76345;DHT22;65160;50.504;3.666;2022-11-13T06:08:42;4.71;90.89
76345;DHT22;65160;50.504;3.666;2022-11-13T06:11:16;4.71;90.89
76345;DHT22;65160;50.504;3.666;2022-11-13T06:13:42;4.68;90.92
76345;DHT22;65160;50.504;3.666;2022-11-13T06:16:10;4.66;90.96
76345;DHT22;65160;50.504;3.666;2022-11-13T06:18:37;4.66;90.89
76345;DHT22;65160;50.504;3.666;2022-11-13T06:21:06;4.61;90.95
76345;DHT22;65160;50.504;3.666;2022-11-13T06:23:33;4.65;90.85
76345;DHT22;65160;50.504;3.666;2022-11-13T06:26:19;4.66;90.76
76345;DHT22;65160;50.504;3.666;2022-11-13T06:28:45;4.58;91.23
76345;DHT22;65160;50.504;3.666;2022-11-13T06:31:13;4.54;91.61
76345;DHT22;65160;50.504;3.666;2022-11-13T06:33:40;4.56;91.65
76345;DHT22;65160;50.504;3.666;2022-11-13T06:36:13;4.58;91.41
76345;DHT22;65160;50.504;3.666;2022-11-13T06:38:40;4.56;91.61
76345;DHT22;65160;50.504;3.666;2022-11-13T06:41:06;4.62;91.44
76345;DHT22;65160;50.504;3.666;2022-11-13T06:43:32;4.66;91.29
76345;DHT22;65160;50.504;3.666;2022-11-13T06:46:01;4.69;91.17
76345;DHT22;65160;50.504;3.666;2022-11-13T06:48:27;4.65;91.06
76345;DHT22;65160;50.504;3.666;2022-11-13T06:50:52;4.63;91.03
76345;DHT22;65160;50.504;3.666;2022-11-13T06:53:18;4.56;91.21
76345;DHT22;65160;50.504;3.666;2022-11-13T06:55:48;4.56;91.27
76345;DHT22;65160;50.504;3.666;2022-11-13T06:58:14;4.52;91.18
76345;DHT22;65160;50.504;3.666;2022-11-13T07:00:40;4.44;91.41
76345;DHT22;65160;50.504;3.666;2022-11-13T07:03:23;4.46;91.60
76345;DHT22;65160;50.504;3.666;2022-11-13T07:05:49;4.38;91.49
76345;DHT22;65160;50.504;3.666;2022-11-13T07:08:15;4.37;91.97
76345;DHT22;65160;50.504;3.666;2022-11-13T07:10:41;4.40;91.93
76345;DHT22;65160;50.504;3.666;2022-11-13T07:13:07;4.44;91.74
76345;DHT22;65160;50.504;3.666;2022-11-13T07:15:37;4.42;91.60
76345;DHT22;65160;50.504;3.666;2022-11-13T07:18:04;4.37;91.74
76345;DHT22;65160;50.504;3.666;2022-11-13T07:20:29;4.38;91.65
76345;DHT22;65160;50.504;3.666;2022-11-13T07:23:00;4.42;91.67
76345;DHT22;65160;50.504;3.666;2022-11-13T07:25:26;4.48;91.59
76345;DHT22;65160;50.504;3.666;2022-11-13T07:27:52;4.51;91.49
76345;DHT22;65160;50.504;3.666;2022-11-13T07:30:18;4.44;91.22
76345;DHT22;65160;50.504;3.666;2022-11-13T07:32:44;4.37;91.51
76345;DHT22;65160;50.504;3.666;2022-11-13T07:35:10;4.45;91.74
76345;DHT22;65160;50.504;3.666;2022-11-13T07:37:36;4.44;91.81
76345;DHT22;65160;50.504;3.666;2022-11-13T07:40:02;4.51;91.81
76345;DHT22;65160;50.504;3.666;2022-11-13T07:42:28;4.65;91.55
76345;DHT22;65160;50.504;3.666;2022-11-13T07:44:53;4.69;91.40
76345;DHT22;65160;50.504;3.666;2022-11-13T07:47:18;4.72;91.18
76345;DHT22;65160;50.504;3.666;2022-11-13T07:49:44;4.73;91.11
76345;DHT22;65160;50.504;3.666;2022-11-13T07:52:09;4.73;90.98
76345;DHT22;65160;50.504;3.666;2022-11-13T07:54:35;4.83;90.87
76345;DHT22;65160;50.504;3.666;2022-11-13T07:57:00;4.79;90.93
76345;DHT22;65160;50.504;3.666;2022-11-13T07:59:26;4.76;91.28
76345;DHT22;65160;50.504;3.666;2022-11-13T08:01:51;4.71;91.67
76345;DHT22;65160;50.504;3.666;2022-11-13T08:04:16;4.68;92.35
76345;DHT22;65160;50.504;3.666;2022-11-13T08:06:42;4.61;92.73
76345;DHT22;65160;50.504;3.666;2022-11-13T08:09:07;4.62;93.29
76345;DHT22;65160;50.504;3.666;2022-11-13T08:11:33;4.63;93.57
76345;DHT22;65160;50.504;3.666;2022-11-13T08:13:59;4.71;93.82
76345;DHT22;65160;50.504;3.666;2022-11-13T08:16:24;4.72;94.00
76345;DHT22;65160;50.504;3.666;2022-11-13T08:18:50;4.83;94.12
76345;DHT22;65160;50.504;3.666;2022-11-13T08:21:16;4.89;94.18
76345;DHT22;65160;50.504;3.666;2022-11-13T08:23:42;5.04;94.14
76345;DHT22;65160;50.504;3.666;2022-11-13T08:26:08;5.16;94.03
76345;DHT22;65160;50.504;3.666;2022-11-13T08:28:34;5.32;93.97
76345;DHT22;65160;50.504;3.666;2022-11-13T08:31:00;5.48;93.88
76345;DHT22;65160;50.504;3.666;2022-11-13T08:33:26;5.67;93.61
76345;DHT22;65160;50.504;3.666;2022-11-13T08:35:57;5.87;93.27
76345;DHT22;65160;50.504;3.666;2022-11-13T08:38:23;6.11;92.75
76345;DHT22;65160;50.504;3.666;2022-11-13T08:40:49;6.34;92.06
76345;DHT22;65160;50.504;3.666;2022-11-13T08:43:15;6.65;91.21
76345;DHT22;65160;50.504;3.666;2022-11-13T08:45:41;6.96;90.46
76345;DHT22;65160;50.504;3.666;2022-11-13T08:48:09;7.24;89.91
76345;DHT22;65160;50.504;3.666;2022-11-13T08:50:34;7.51;89.13
76345;DHT22;65160;50.504;3.666;2022-11-13T08:53:00;7.65;88.35
76345;DHT22;65160;50.504;3.666;2022-11-13T08:55:26;7.85;87.77
76345;DHT22;65160;50.504;3.666;2022-11-13T08:57:52;8.06;87.07
76345;DHT22;65160;50.504;3.666;2022-11-13T09:00:19;8.27;86.86
76345;DHT22;65160;50.504;3.666;2022-11-13T09:02:45;8.45;86.38
76345;DHT22;65160;50.504;3.666;2022-11-13T09:05:10;8.66;86.18
76345;DHT22;65160;50.504;3.666;2022-11-13T09:07:36;8.89;86.02
76345;DHT22;65160;50.504;3.666;2022-11-13T09:10:01;9.13;85.74
76345;DHT22;65160;50.504;3.666;2022-11-13T09:12:27;9.27;85.41
76345;DHT22;65160;50.504;3.666;2022-11-13T09:14:53;9.48;85.34
76345;DHT22;65160;50.504;3.666;2022-11-13T09:17:18;9.71;84.65
76345;DHT22;65160;50.504;3.666;2022-11-13T09:19:44;9.95;83.55
76345;DHT22;65160;50.504;3.666;2022-11-13T09:22:10;10.13;82.90
76345;DHT22;65160;50.504;3.666;2022-11-13T09:24:36;10.34;81.91
76345;DHT22;65160;50.504;3.666;2022-11-13T09:27:01;10.55;81.93
76345;DHT22;65160;50.504;3.666;2022-11-13T09:29:26;10.78;80.97
76345;DHT22;65160;50.504;3.666;2022-11-13T09:31:53;10.91;78.92
76345;DHT22;65160;50.504;3.666;2022-11-13T09:34:19;11.10;78.71
76345;DHT22;65160;50.504;3.666;2022-11-13T09:36:45;11.28;79.33
76345;DHT22;65160;50.504;3.666;2022-11-13T09:39:10;11.48;77.07
76345;DHT22;65160;50.504;3.666;2022-11-13T09:41:44;11.50;76.90
76345;DHT22;65160;50.504;3.666;2022-11-13T09:44:15;11.64;76.02
76345;DHT22;65160;50.504;3.666;2022-11-13T09:46:50;11.72;76.27
76345;DHT22;65160;50.504;3.666;2022-11-13T09:49:26;11.72;75.36
76345;DHT22;65160;50.504;3.666;2022-11-13T09:51:58;11.64;75.07
76345;DHT22;65160;50.504;3.666;2022-11-13T09:54:23;11.78;75.00
76345;DHT22;65160;50.504;3.666;2022-11-13T09:57:00;11.95;74.22
76345;DHT22;65160;50.504;3.666;2022-11-13T09:59:36;12.20;74.99
76345;DHT22;65160;50.504;3.666;2022-11-13T10:10:48;12.51;73.45
76345;DHT22;65160;50.504;3.666;2022-11-13T10:13:20;12.74;73.68
76345;DHT22;65160;50.504;3.666;2022-11-13T10:15:50;12.84;71.13
76345;DHT22;65160;50.504;3.666;2022-11-13T10:18:21;13.01;70.54
76345;DHT22;65160;50.504;3.666;2022-11-13T10:23:37;13.18;70.17
76345;DHT22;65160;50.504;3.666;2022-11-13T10:26:17;13.37;69.99
76345;DHT22;65160;50.504;3.666;2022-11-13T10:28:43;13.56;68.80
76345;DHT22;65160;50.504;3.666;2022-11-13T10:31:12;13.58;67.58
76345;DHT22;65160;50.504;3.666;2022-11-13T10:33:38;13.64;67.44
76345;DHT22;65160;50.504;3.666;2022-11-13T10:39:07;13.91;68.27
76345;DHT22;65160;50.504;3.666;2022-11-13T10:41:45;14.04;68.33
76345;DHT22;65160;50.504;3.666;2022-11-13T10:44:31;14.25;66.67
76345;DHT22;65160;50.504;3.666;2022-11-13T10:47:14;14.34;65.92
76345;DHT22;65160;50.504;3.666;2022-11-13T10:49:39;14.11;65.32
76345;DHT22;65160;50.504;3.666;2022-11-13T10:52:20;13.89;66.02
76345;DHT22;65160;50.504;3.666;2022-11-13T10:54:47;14.08;65.41
76345;DHT22;65160;50.504;3.666;2022-11-13T10:57:32;14.18;66.59
76345;DHT22;65160;50.504;3.666;2022-11-13T10:59:59;14.21;64.93
76345;DHT22;65160;50.504;3.666;2022-11-13T11:02:26;14.08;65.16
76345;DHT22;65160;50.504;3.666;2022-11-13T11:05:25;13.97;64.78
76345;DHT22;65160;50.504;3.666;2022-11-13T11:07:52;13.78;65.99
76345;DHT22;65160;50.504;3.666;2022-11-13T11:12:50;14.05;65.53
76345;DHT22;65160;50.504;3.666;2022-11-13T11:15:21;13.92;66.43
76345;DHT22;65160;50.504;3.666;2022-11-13T11:17:50;13.60;67.73
76345;DHT22;65160;50.504;3.666;2022-11-13T11:20:35;13.50;68.64
76345;DHT22;65160;50.504;3.666;2022-11-13T11:25:55;13.53;67.85
76345;DHT22;65160;50.504;3.666;2022-11-13T11:31:15;14.00;65.10
76345;DHT22;65160;50.504;3.666;2022-11-13T11:33:59;13.75;63.09
76345;DHT22;65160;50.504;3.666;2022-11-13T11:36:45;13.89;64.37
76345;DHT22;65160;50.504;3.666;2022-11-13T11:39:26;14.12;62.91
76345;DHT22;65160;50.504;3.666;2022-11-13T11:42:23;14.34;61.55
76345;DHT22;65160;50.504;3.666;2022-11-13T11:47:35;14.13;60.33
76345;DHT22;65160;50.504;3.666;2022-11-13T11:50:02;14.06;61.64
76345;DHT22;65160;50.504;3.666;2022-11-13T12:00:48;14.70;60.21
76345;DHT22;65160;50.504;3.666;2022-11-13T12:09:22;14.84;59.09
76345;DHT22;65160;50.504;3.666;2022-11-13T12:15:06;14.74;60.21
76345;DHT22;65160;50.504;3.666;2022-11-13T12:21:04;14.63;60.70
76345;DHT22;65160;50.504;3.666;2022-11-13T12:34:31;14.74;62.29
76345;DHT22;65160;50.504;3.666;2022-11-13T12:37:00;15.06;63.06
76345;DHT22;65160;50.504;3.666;2022-11-13T12:42:04;15.32;64.41
76345;DHT22;65160;50.504;3.666;2022-11-13T12:44:43;15.40;62.46
76345;DHT22;65160;50.504;3.666;2022-11-13T12:47:11;15.61;64.19
76345;DHT22;65160;50.504;3.666;2022-11-13T12:49:37;15.67;66.32
76345;DHT22;65160;50.504;3.666;2022-11-13T12:52:15;15.83;63.28
76345;DHT22;65160;50.504;3.666;2022-11-13T12:54:41;16.11;61.11
76345;DHT22;65160;50.504;3.666;2022-11-13T12:59:58;16.33;60.87
76345;DHT22;65160;50.504;3.666;2022-11-13T13:03:03;16.12;60.64
76345;DHT22;65160;50.504;3.666;2022-11-13T13:11:18;16.19;60.05
76345;DHT22;65160;50.504;3.666;2022-11-13T13:16:31;16.60;59.30
76345;DHT22;65160;50.504;3.666;2022-11-13T13:19:28;16.55;59.93
76345;DHT22;65160;50.504;3.666;2022-11-13T13:21:54;16.53;57.93
76345;DHT22;65160;50.504;3.666;2022-11-13T13:24:36;16.52;57.75
76345;DHT22;65160;50.504;3.666;2022-11-13T13:27:20;16.49;57.35
76345;DHT22;65160;50.504;3.666;2022-11-13T13:29:46;16.56;58.65
76345;DHT22;65160;50.504;3.666;2022-11-13T13:32:20;16.67;57.68
76345;DHT22;65160;50.504;3.666;2022-11-13T13:35:22;16.59;57.94
76345;DHT22;65160;50.504;3.666;2022-11-13T13:37:58;16.64;59.33
76345;DHT22;65160;50.504;3.666;2022-11-13T13:40:43;16.52;58.38
76345;DHT22;65160;50.504;3.666;2022-11-13T13:46:18;16.55;58.04
76345;DHT22;65160;50.504;3.666;2022-11-13T13:48:47;16.38;59.07
76345;DHT22;65160;50.504;3.666;2022-11-13T13:51:25;16.51;58.61
76345;DHT22;65160;50.504;3.666;2022-11-13T13:53:54;16.70;57.99
76345;DHT22;65160;50.504;3.666;2022-11-13T13:56:21;16.92;58.02
76345;DHT22;65160;50.504;3.666;2022-11-13T13:58:47;17.18;57.03
76345;DHT22;65160;50.504;3.666;2022-11-13T14:01:28;17.57;56.44
76345;DHT22;65160;50.504;3.666;2022-11-13T14:06:35;17.69;55.82
76345;DHT22;65160;50.504;3.666;2022-11-13T14:09:19;17.36;56.64
76345;DHT22;65160;50.504;3.666;2022-11-13T14:11:45;17.29;56.85
76345;DHT22;65160;50.504;3.666;2022-11-13T14:14:17;17.18;57.35
76345;DHT22;65160;50.504;3.666;2022-11-13T14:16:55;17.42;56.35
76345;DHT22;65160;50.504;3.666;2022-11-13T14:19:21;17.40;56.33
76345;DHT22;65160;50.504;3.666;2022-11-13T14:21:53;17.07;57.92
76345;DHT22;65160;50.504;3.666;2022-11-13T14:26:48;17.18;57.42
76345;DHT22;65160;50.504;3.666;2022-11-13T14:31:54;17.14;58.08
76345;DHT22;65160;50.504;3.666;2022-11-13T14:34:26;16.90;58.03
76345;DHT22;65160;50.504;3.666;2022-11-13T14:36:51;16.46;59.42
76345;DHT22;65160;50.504;3.666;2022-11-13T14:39:23;16.01;60.81
76345;DHT22;65160;50.504;3.666;2022-11-13T14:41:59;15.44;62.50
76345;DHT22;65160;50.504;3.666;2022-11-13T14:44:31;15.05;63.99
76345;DHT22;65160;50.504;3.666;2022-11-13T14:47:05;14.94;64.85
76345;DHT22;65160;50.504;3.666;2022-11-13T14:49:33;15.52;63.10
76345;DHT22;65160;50.504;3.666;2022-11-13T14:51:59;16.00;61.47
76345;DHT22;65160;50.504;3.666;2022-11-13T14:54:36;16.16;61.12
76345;DHT22;65160;50.504;3.666;2022-11-13T14:57:09;16.07;61.65
76345;DHT22;65160;50.504;3.666;2022-11-13T14:59:35;16.14;61.04
76345;DHT22;65160;50.504;3.666;2022-11-13T15:02:01;15.69;62.27
76345;DHT22;65160;50.504;3.666;2022-11-13T15:04:26;15.02;64.59
76345;DHT22;65160;50.504;3.666;2022-11-13T15:07:00;14.57;66.15
76345;DHT22;65160;50.504;3.666;2022-11-13T15:09:28;14.22;66.92
76345;DHT22;65160;50.504;3.666;2022-11-13T15:11:55;14.02;67.83
76345;DHT22;65160;50.504;3.666;2022-11-13T15:14:21;13.79;68.20
76345;DHT22;65160;50.504;3.666;2022-11-13T15:16:48;13.53;69.31
76345;DHT22;65160;50.504;3.666;2022-11-13T15:19:29;13.29;70.22
76345;DHT22;65160;50.504;3.666;2022-11-13T15:21:55;13.26;70.72
76345;DHT22;65160;50.504;3.666;2022-11-13T15:24:21;13.15;70.78
76345;DHT22;65160;50.504;3.666;2022-11-13T15:26:46;12.99;71.42
76345;DHT22;65160;50.504;3.666;2022-11-13T15:29:12;12.88;72.00
76345;DHT22;65160;50.504;3.666;2022-11-13T15:31:41;12.82;72.49
76345;DHT22;65160;50.504;3.666;2022-11-13T15:34:12;12.75;72.84
76345;DHT22;65160;50.504;3.666;2022-11-13T15:36:37;12.61;72.91
76345;DHT22;65160;50.504;3.666;2022-11-13T15:39:04;12.43;73.94
76345;DHT22;65160;50.504;3.666;2022-11-13T15:41:29;12.34;73.74
76345;DHT22;65160;50.504;3.666;2022-11-13T15:43:57;12.15;74.59
76345;DHT22;65160;50.504;3.666;2022-11-13T15:46:23;12.08;74.83
76345;DHT22;65160;50.504;3.666;2022-11-13T15:48:49;12.08;75.55
76345;DHT22;65160;50.504;3.666;2022-11-13T15:56:40;11.53;76.49
76345;DHT22;65160;50.504;3.666;2022-11-13T15:59:11;11.37;77.34
76345;DHT22;65160;50.504;3.666;2022-11-13T16:01:37;11.28;77.86
76345;DHT22;65160;50.504;3.666;2022-11-13T16:04:02;11.20;77.95
76345;DHT22;65160;50.504;3.666;2022-11-13T16:06:30;11.16;78.53
76345;DHT22;65160;50.504;3.666;2022-11-13T16:08:58;11.05;78.12
76345;DHT22;65160;50.504;3.666;2022-11-13T16:11:24;10.80;79.04
76345;DHT22;65160;50.504;3.666;2022-11-13T16:13:49;10.72;79.39
76345;DHT22;65160;50.504;3.666;2022-11-13T16:16:21;10.69;79.63
76345;DHT22;65160;50.504;3.666;2022-11-13T16:18:48;10.61;79.39
76345;DHT22;65160;50.504;3.666;2022-11-13T16:21:15;10.47;79.91
76345;DHT22;65160;50.504;3.666;2022-11-13T16:23:41;10.38;80.05
76345;DHT22;65160;50.504;3.666;2022-11-13T16:26:12;10.33;80.29
76345;DHT22;65160;50.504;3.666;2022-11-13T16:28:39;10.20;80.25
76345;DHT22;65160;50.504;3.666;2022-11-13T16:31:04;10.13;80.98
76345;DHT22;65160;50.504;3.666;2022-11-13T16:33:30;10.07;80.89
76345;DHT22;65160;50.504;3.666;2022-11-13T16:35:55;10.06;80.37
76345;DHT22;65160;50.504;3.666;2022-11-13T16:38:20;9.92;80.93
76345;DHT22;65160;50.504;3.666;2022-11-13T16:40:46;9.85;81.28
76345;DHT22;65160;50.504;3.666;2022-11-13T16:43:11;9.81;81.11
76345;DHT22;65160;50.504;3.666;2022-11-13T16:45:37;9.71;81.40
76345;DHT22;65160;50.504;3.666;2022-11-13T16:48:11;9.58;81.69
76345;DHT22;65160;50.504;3.666;2022-11-13T16:50:38;9.45;81.71
76345;DHT22;65160;50.504;3.666;2022-11-13T16:53:04;9.42;82.27
76345;DHT22;65160;50.504;3.666;2022-11-13T16:55:30;9.31;81.82
76345;DHT22;65160;50.504;3.666;2022-11-13T16:57:56;9.26;82.52
76345;DHT22;65160;50.504;3.666;2022-11-13T17:00:21;9.21;82.80
76345;DHT22;65160;50.504;3.666;2022-11-13T17:02:50;9.20;81.86
76345;DHT22;65160;50.504;3.666;2022-11-13T17:05:20;9.10;82.57
76345;DHT22;65160;50.504;3.666;2022-11-13T17:07:46;9.07;83.38
76345;DHT22;65160;50.504;3.666;2022-11-13T17:10:13;9.07;84.10
76345;DHT22;65160;50.504;3.666;2022-11-13T17:12:39;9.07;82.79
76345;DHT22;65160;50.504;3.666;2022-11-13T17:15:05;9.09;83.29
76345;DHT22;65160;50.504;3.666;2022-11-13T17:17:31;9.04;82.71
76345;DHT22;65160;50.504;3.666;2022-11-13T17:19:56;9.02;82.57
76345;DHT22;65160;50.504;3.666;2022-11-13T17:22:21;8.89;82.80